TAF Text Data
IDs:
Format:
Raw Decoded Include METAR

Data at: 2332 UTC 19 Apr 2021

TAF for:KCLT (Charlotte/Douglas In, NC, US) issued at 2320 UTC 19 Apr 2021
Text:KCLT 192320Z 2000/2106 34003KT P6SM SCT250
Forecast period:0000 to 1400 UTC 20 April 2021
Forecast type:FROM: standard forecast or significant change
Winds:from the NNW (340 degrees) at 3 MPH (3 knots; 1.5 m/s)
Visibility:6 or more sm (10+ km)
Ceiling:at least 12,000 feet AGL
Clouds: scattered clouds at 25000 feet AGL
Text:FM201400 19006KT P6SM BKN250
Forecast period:1400 to 1800 UTC 20 April 2021
Forecast type:FROM: standard forecast or significant change
Winds:from the S (190 degrees) at 7 MPH (6 knots; 3.1 m/s)
Visibility:6 or more sm (10+ km)
Ceiling:25000 feet AGL
Clouds: broken clouds at 25000 feet AGL
Text:FM201800 20007KT P6SM SCT060 BKN150
Forecast period:1800 UTC 20 April 2021 to 0600 UTC 21 April 2021
Forecast type:FROM: standard forecast or significant change
Winds:from the SSW (200 degrees) at 8 MPH (7 knots; 3.6 m/s)
Visibility:6 or more sm (10+ km)
Ceiling:15000 feet AGL
Clouds: scattered clouds at 6000 feet AGL, broken clouds at 15000 feet AGL